createdAt,value
2022-12-18T00:02:17.215Z,57.60
2022-12-18T00:07:24.088Z,57.49
2022-12-18T00:12:31.178Z,57.31
2022-12-18T00:17:38.315Z,57.34
2022-12-18T00:22:45.495Z,57.82
2022-12-18T00:27:52.595Z,57.39
2022-12-18T00:33:00.338Z,57.47
2022-12-18T00:38:07.754Z,57.43
2022-12-18T00:43:14.614Z,57.42
2022-12-18T00:48:22.047Z,57.45
2022-12-18T00:53:29.244Z,57.66
2022-12-18T00:58:38.825Z,57.43
2022-12-18T01:03:46.627Z,57.39
2022-12-18T01:08:53.656Z,57.64
2022-12-18T01:14:03.060Z,57.81
2022-12-18T01:19:10.122Z,57.51
2022-12-18T01:24:17.636Z,57.49
2022-12-18T01:29:24.784Z,57.67
2022-12-18T01:34:32.058Z,57.42
2022-12-18T01:39:39.349Z,57.51
2022-12-18T01:45:03.605Z,57.53
2022-12-18T01:50:12.964Z,57.45
2022-12-18T01:55:21.875Z,57.50
2022-12-18T02:00:29.299Z,57.56
2022-12-18T02:05:43.665Z,57.68
2022-12-18T02:10:57.535Z,57.59
2022-12-18T02:16:09.517Z,57.45
2022-12-18T02:21:23.925Z,57.36
2022-12-18T02:26:33.793Z,57.66
2022-12-18T02:31:43.494Z,57.69
2022-12-18T02:36:51.365Z,57.77
2022-12-18T02:41:59.183Z,57.66
2022-12-18T02:47:06.424Z,57.61
2022-12-18T02:52:20.274Z,57.51
2022-12-18T02:57:34.404Z,57.59
2022-12-18T03:02:45.667Z,57.56
2022-12-18T03:07:55.636Z,57.51
2022-12-18T03:13:05.055Z,57.50
2022-12-18T03:18:14.055Z,57.52
2022-12-18T03:23:26.248Z,57.64
2022-12-18T03:28:36.654Z,57.66
2022-12-18T03:33:46.883Z,57.65
2022-12-18T03:38:54.274Z,57.56
2022-12-18T03:44:04.247Z,57.43
2022-12-18T03:49:13.465Z,57.59
2022-12-18T03:54:21.606Z,57.62
2022-12-18T03:59:30.328Z,57.56
2022-12-18T04:04:38.445Z,57.50
2022-12-18T04:09:46.962Z,57.36
2022-12-18T04:14:54.408Z,57.55
2022-12-18T04:20:01.939Z,57.64
2022-12-18T04:25:09.656Z,57.53
2022-12-18T04:30:17.074Z,57.44
2022-12-18T04:35:24.155Z,57.60
2022-12-18T04:40:31.435Z,57.70
2022-12-18T04:45:39.258Z,57.57
2022-12-18T04:50:48.035Z,57.49
2022-12-18T04:56:04.817Z,57.57
2022-12-18T05:01:12.293Z,57.39
2022-12-18T05:06:19.321Z,57.51
2022-12-18T05:11:26.196Z,57.31
2022-12-18T05:16:33.162Z,57.45
2022-12-18T05:21:40.085Z,57.45
2022-12-18T05:26:47.125Z,57.63
2022-12-18T05:31:54.183Z,57.58
2022-12-18T05:37:01.017Z,57.43
2022-12-18T05:42:08.228Z,57.39
2022-12-18T05:47:15.445Z,57.51
2022-12-18T05:52:22.145Z,57.36
2022-12-18T05:57:29.456Z,57.51
2022-12-18T06:02:36.892Z,57.66
2022-12-18T06:07:43.986Z,57.53
2022-12-18T06:12:50.765Z,57.45
2022-12-18T06:17:57.578Z,57.42
2022-12-18T06:23:04.625Z,57.36
2022-12-18T06:28:11.915Z,57.48
2022-12-18T06:33:19.254Z,57.55
2022-12-18T06:38:26.865Z,57.36
2022-12-18T06:43:34.315Z,57.35
2022-12-18T06:48:41.667Z,57.32
2022-12-18T06:53:49.076Z,57.27
2022-12-18T06:58:56.174Z,57.03
2022-12-18T07:04:03.205Z,57.32
2022-12-18T07:09:10.486Z,57.44
2022-12-18T07:14:17.676Z,57.24
2022-12-18T07:19:26.806Z,57.24
2022-12-18T07:24:35.256Z,57.19
2022-12-18T07:29:42.966Z,56.88
2022-12-18T07:34:50.696Z,57.09
2022-12-18T07:39:57.987Z,57.00
2022-12-18T07:45:05.735Z,56.96
2022-12-18T07:50:14.728Z,57.02
2022-12-18T07:55:22.116Z,57.37
2022-12-18T08:00:29.355Z,57.29
2022-12-18T08:05:36.305Z,57.24
2022-12-18T08:10:43.215Z,57.14
2022-12-18T08:15:58.427Z,57.56
2022-12-18T08:21:12.079Z,57.39
2022-12-18T08:26:19.245Z,57.46
2022-12-18T08:31:27.058Z,57.94
2022-12-18T08:36:34.077Z,57.99
2022-12-18T08:41:40.937Z,57.89
2022-12-18T08:46:48.179Z,57.73
2022-12-18T08:51:59.082Z,57.86
2022-12-18T08:57:06.274Z,57.80
2022-12-18T09:02:14.407Z,57.69
2022-12-18T09:07:21.459Z,57.72
2022-12-18T09:12:28.606Z,57.55
2022-12-18T09:17:35.434Z,57.77
2022-12-18T09:22:42.075Z,57.40
2022-12-18T09:27:49.706Z,57.58
2022-12-18T09:32:59.485Z,57.75
2022-12-18T09:38:06.466Z,57.67
2022-12-18T09:43:17.825Z,57.85
2022-12-18T09:48:26.595Z,57.84
2022-12-18T09:53:34.918Z,57.68
2022-12-18T09:58:45.825Z,57.99
2022-12-18T10:03:53.726Z,57.70
2022-12-18T10:09:05.597Z,57.57
2022-12-18T10:14:22.506Z,57.83
2022-12-18T10:19:38.175Z,57.61
2022-12-18T10:24:47.966Z,57.73
2022-12-18T10:29:55.985Z,57.71
2022-12-18T10:35:03.245Z,57.68
2022-12-18T10:40:16.837Z,57.71
2022-12-18T10:45:27.343Z,57.71
2022-12-18T10:56:07.345Z,57.85
2022-12-18T11:01:15.144Z,57.97
2022-12-18T11:06:23.136Z,57.95
2022-12-18T11:11:30.625Z,57.91
2022-12-18T11:16:39.348Z,58.00
2022-12-18T11:21:46.426Z,57.86
2022-12-18T11:26:59.356Z,57.83
2022-12-18T11:32:27.996Z,57.83
2022-12-18T11:37:35.385Z,57.82
2022-12-18T11:42:44.255Z,57.98
2022-12-18T11:47:53.025Z,57.75
2022-12-18T11:53:05.633Z,57.82
2022-12-18T11:58:19.028Z,57.83
2022-12-18T12:03:43.671Z,57.90
2022-12-18T12:09:01.245Z,57.78
2022-12-18T12:14:24.826Z,57.83
2022-12-18T12:19:38.924Z,57.62
2022-12-18T12:24:53.375Z,57.91
2022-12-18T12:30:05.177Z,57.83
2022-12-18T12:35:22.354Z,57.91
2022-12-18T12:41:02.891Z,57.84
2022-12-18T12:46:04.094Z,57.65
2022-12-18T12:51:14.635Z,57.89
2022-12-18T12:56:23.332Z,57.75
2022-12-18T13:01:36.862Z,58.00
2022-12-18T13:06:48.236Z,57.98
2022-12-18T13:12:12.724Z,58.08
2022-12-18T13:17:30.734Z,58.09
2022-12-18T13:22:39.155Z,58.00
2022-12-18T13:28:02.605Z,58.04
2022-12-18T13:33:29.615Z,57.98
2022-12-18T13:38:40.715Z,58.04
2022-12-18T13:43:49.294Z,57.95
2022-12-18T13:48:58.935Z,58.04
2022-12-18T13:54:08.600Z,58.01
2022-12-18T13:59:24.584Z,58.21
2022-12-18T14:04:33.085Z,58.07
2022-12-18T14:09:42.607Z,58.28
2022-12-18T14:14:53.101Z,58.03
2022-12-18T14:20:03.168Z,57.89
2022-12-18T14:25:17.497Z,58.07
2022-12-18T14:30:34.958Z,57.98
2022-12-18T14:35:43.276Z,58.18
2022-12-18T14:40:50.335Z,58.13
2022-12-18T14:45:58.006Z,57.92
2022-12-18T14:51:06.195Z,58.10
2022-12-18T14:56:19.835Z,58.15
2022-12-18T15:01:27.982Z,58.18
2022-12-18T15:06:36.375Z,58.14
2022-12-18T15:11:49.948Z,58.02
2022-12-18T15:16:57.538Z,58.04
2022-12-18T15:22:06.538Z,58.11
2022-12-18T15:27:24.489Z,58.15
2022-12-18T15:32:31.497Z,58.16
2022-12-18T15:37:43.837Z,58.26
2022-12-18T15:43:08.885Z,58.17
2022-12-18T15:48:23.271Z,57.81
2022-12-18T15:53:32.275Z,58.16
2022-12-18T15:58:39.376Z,58.19
2022-12-18T16:03:46.641Z,58.20
2022-12-18T16:08:53.792Z,58.25
2022-12-18T16:14:00.747Z,57.98
2022-12-18T16:19:07.997Z,58.20
2022-12-18T16:24:18.006Z,58.13
2022-12-18T16:29:28.743Z,58.16
2022-12-18T16:34:36.895Z,58.10
2022-12-18T16:39:43.875Z,57.76
2022-12-18T16:44:51.985Z,57.67
2022-12-18T16:49:59.167Z,57.54
2022-12-18T16:55:06.534Z,57.37
2022-12-18T17:00:14.814Z,57.32
2022-12-18T17:05:21.805Z,57.41
2022-12-18T17:10:28.976Z,57.22
2022-12-18T17:15:38.960Z,57.24
2022-12-18T17:20:46.135Z,56.78
2022-12-18T17:25:56.665Z,56.75
2022-12-18T17:31:03.704Z,56.91
2022-12-18T17:36:11.427Z,57.30
2022-12-18T17:41:18.363Z,57.80
2022-12-18T17:46:26.422Z,57.75
2022-12-18T17:51:33.695Z,57.25
2022-12-18T17:56:41.095Z,57.46
2022-12-18T18:01:48.563Z,57.10
2022-12-18T18:06:56.025Z,57.58
2022-12-18T18:12:20.394Z,57.10
2022-12-18T18:17:27.910Z,56.99
2022-12-18T18:22:35.444Z,57.05
2022-12-18T18:27:42.599Z,56.72
2022-12-18T18:32:50.655Z,56.97
2022-12-18T18:37:59.816Z,56.80
2022-12-18T18:43:06.955Z,56.99
2022-12-18T18:48:14.486Z,56.72
2022-12-18T18:53:22.035Z,57.11
2022-12-18T18:58:29.048Z,56.88
2022-12-18T19:03:37.986Z,57.20
2022-12-18T19:08:46.826Z,57.44
2022-12-18T19:13:54.054Z,57.39
2022-12-18T19:19:03.578Z,57.32
2022-12-18T19:24:11.385Z,57.14
2022-12-18T19:29:18.635Z,56.97
2022-12-18T19:34:25.807Z,56.98
2022-12-18T19:39:33.047Z,56.79
2022-12-18T19:44:40.235Z,56.90
2022-12-18T19:49:47.398Z,56.91
2022-12-18T19:54:54.256Z,56.66
2022-12-18T20:00:00.897Z,56.60
2022-12-18T20:05:09.360Z,56.80
2022-12-18T20:10:16.416Z,56.88
2022-12-18T20:15:25.456Z,57.07
2022-12-18T20:20:32.527Z,56.91
2022-12-18T20:25:40.258Z,57.17
2022-12-18T20:30:47.307Z,56.78
2022-12-18T20:35:54.447Z,56.99
2022-12-18T20:41:02.777Z,56.89
2022-12-18T20:46:11.121Z,56.75
2022-12-18T20:51:19.106Z,56.85
2022-12-18T20:56:27.166Z,56.57
2022-12-18T21:01:34.112Z,57.10
2022-12-18T21:06:43.829Z,56.82
2022-12-18T21:12:13.218Z,56.86
2022-12-18T21:17:21.835Z,56.90
2022-12-18T21:22:29.307Z,56.75
2022-12-18T21:27:36.585Z,56.97
2022-12-18T21:32:43.649Z,57.47
2022-12-18T21:37:50.557Z,57.45
2022-12-18T21:43:17.816Z,57.35
2022-12-18T21:48:25.084Z,57.85
2022-12-18T21:53:32.375Z,57.88
2022-12-18T21:58:39.616Z,57.98
2022-12-18T22:04:04.636Z,57.80
2022-12-18T22:09:12.847Z,58.12
2022-12-18T22:14:19.988Z,58.18
2022-12-18T22:19:27.175Z,58.44
2022-12-18T22:24:34.496Z,58.23
2022-12-18T22:29:59.255Z,58.26
2022-12-18T22:35:14.170Z,58.33
2022-12-18T22:40:30.068Z,58.20
2022-12-18T22:45:38.409Z,58.21
2022-12-18T22:50:46.155Z,58.04
2022-12-18T22:55:53.655Z,58.10
2022-12-18T23:01:00.866Z,58.30
2022-12-18T23:06:09.122Z,57.97
2022-12-18T23:11:16.774Z,58.59
2022-12-18T23:16:25.418Z,58.14
2022-12-18T23:21:32.686Z,58.25
2022-12-18T23:26:40.966Z,58.06
2022-12-18T23:31:48.069Z,58.21
2022-12-18T23:36:56.177Z,58.17
2022-12-18T23:42:03.392Z,58.32
2022-12-18T23:47:10.335Z,58.02
2022-12-18T23:52:17.575Z,57.92
2022-12-18T23:57:24.666Z,57.97
